Time,TemperatureF,DewpointF,PressureIn,WindDirection,WindDirectionDegrees,WindSpeedMPH,WindSpeedGustMPH,Humidity,HourlyPrecipIn,Conditions,Clouds,dailyrainin,SolarRadiationWatts/m^2,SoftwareType,DateUTC
2013-01-24 00:00:00,34.8,25.7,28.93,NE,39,1.0,7.0,69,0.00,FEW,,0.00,0.0,WeatherDisplay:10.37,2013-01-24 06:00:00,
2013-01-24 00:10:00,34.8,25.7,28.93,NE,48,1.0,6.0,69,0.00,FEW,,0.00,0.0,WeatherDisplay:10.37,2013-01-24 06:10:00,
2013-01-24 00:20:00,34.7,25.2,28.93,NE,45,3.0,7.0,68,0.00,FEW,,0.00,0.0,WeatherDisplay:10.37,2013-01-24 06:20:00,
2013-01-24 00:30:00,34.6,24.8,28.92,NE,46,1.0,7.0,67,0.00,FEW,,0.00,0.0,WeatherDisplay:10.37,2013-01-24 06:30:00,
2013-01-24 00:40:00,34.4,24.6,28.93,NE,53,2.0,8.0,67,0.00,FEW,,0.00,0.0,WeatherDisplay:10.37,2013-01-24 06:40:00,
2013-01-24 00:50:00,33.9,24.1,28.93,NE,42,3.0,9.0,67,0.00,FEW,,0.00,0.0,WeatherDisplay:10.37,2013-01-24 06:50:00,
2013-01-24 01:00:00,33.5,23.7,28.93,NE,44,2.0,7.0,67,0.00,FEW,,0.00,0.0,WeatherDisplay:10.37,2013-01-24 07:00:00,
2013-01-24 01:10:00,32.9,23.8,28.93,NE,38,3.0,7.0,69,0.00,FEW,,0.00,0.0,WeatherDisplay:10.37,2013-01-24 07:10:00,
2013-01-24 01:20:00,32.9,23.8,28.94,NNE,32,1.0,9.0,69,0.00,FEW,,0.00,0.0,WeatherDisplay:10.37,2013-01-24 07:20:00,
2013-01-24 01:30:00,33.1,24.0,28.94,NNE,30,3.0,12.0,69,0.00,FEW,,0.00,0.0,WeatherDisplay:10.37,2013-01-24 07:30:00,
2013-01-24 01:40:00,33.1,23.7,28.94,NE,47,3.0,12.0,68,0.00,FEW,,0.00,0.0,WeatherDisplay:10.37,2013-01-24 07:40:00,
2013-01-24 01:50:00,33.1,22.6,28.94,NE,43,1.0,12.0,65,0.00,FEW,,0.00,0.0,WeatherDisplay:10.37,2013-01-24 07:50:00,
2013-01-24 02:00:00,32.9,22.4,28.95,NE,52,5.0,12.0,65,0.00,FEW,,0.00,0.0,WeatherDisplay:10.37,2013-01-24 08:00:00,
2013-01-24 02:10:00,32.7,21.9,28.95,NE,52,3.0,10.0,64,0.00,FEW,,0.00,0.0,WeatherDisplay:10.37,2013-01-24 08:10:00,
2013-01-24 02:20:00,32.4,21.2,28.95,NE,37,5.0,12.0,63,0.00,FEW,,0.00,0.0,WeatherDisplay:10.37,2013-01-24 08:20:00,
2013-01-24 02:30:00,32.1,19.4,28.96,NE,49,6.0,12.0,59,0.00,FEW,,0.00,0.0,WeatherDisplay:10.37,2013-01-24 08:30:00,
2013-01-24 02:40:00,31.8,18.2,28.96,NE,49,6.0,14.0,57,0.00,FEW,,0.00,0.0,WeatherDisplay:10.37,2013-01-24 08:40:00,
2013-01-24 02:50:00,31.5,18.4,28.97,NE,44,3.0,10.0,58,0.00,FEW,,0.00,0.0,WeatherDisplay:10.37,2013-01-24 08:50:00,
2013-01-24 03:00:00,31.3,18.2,28.97,NE,56,5.0,10.0,58,0.00,FEW,,0.00,0.0,WeatherDisplay:10.37,2013-01-24 09:00:00,
2013-01-24 03:10:00,31.1,18.4,28.97,NE,50,5.0,13.0,59,0.00,FEW,,0.00,0.0,WeatherDisplay:10.37,2013-01-24 09:10:00,
2013-01-24 03:20:00,30.8,18.5,28.97,NE,56,7.0,14.0,60,0.00,FEW,,0.00,0.0,WeatherDisplay:10.37,2013-01-24 09:20:00,
2013-01-24 03:30:00,30.5,18.6,28.96,ENE,59,6.0,14.0,61,0.00,FEW,,0.00,0.0,WeatherDisplay:10.37,2013-01-24 09:30:00,
2013-01-24 03:40:00,30.3,19.2,28.97,NE,52,6.0,13.0,63,0.00,FEW,,0.00,0.0,WeatherDisplay:10.37,2013-01-24 09:40:00,
2013-01-24 03:50:00,30.1,18.6,28.98,NE,44,7.0,14.0,62,0.00,FEW,,0.00,0.0,WeatherDisplay:10.37,2013-01-24 09:50:00,
2013-01-24 04:00:00,29.9,18.8,28.98,ENE,58,3.0,12.0,63,0.00,FEW,,0.00,0.0,WeatherDisplay:10.37,2013-01-24 10:00:00,
2013-01-24 04:10:00,29.7,17.9,28.98,NE,53,7.0,14.0,61,0.00,FEW,,0.00,0.0,WeatherDisplay:10.37,2013-01-24 10:10:00,
2013-01-24 04:20:00,29.4,18.0,28.98,NE,45,8.0,14.0,62,0.00,FEW,,0.00,0.0,WeatherDisplay:10.37,2013-01-24 10:20:00,
2013-01-24 04:30:00,29.2,17.8,28.98,ENE,61,5.0,12.0,62,0.00,FEW,,0.00,0.0,WeatherDisplay:10.37,2013-01-24 10:30:00,
2013-01-24 04:40:00,29.0,17.6,28.99,NE,46,6.0,10.0,62,0.00,FEW,,0.00,0.0,WeatherDisplay:10.37,2013-01-24 10:40:00,
2013-01-24 04:50:00,28.9,17.1,28.99,NE,50,3.0,9.0,61,0.00,FEW,,0.00,0.0,WeatherDisplay:10.37,2013-01-24 10:50:00,
2013-01-24 05:00:00,28.8,16.6,28.99,ENE,57,2.0,9.0,60,0.00,FEW,,0.00,0.0,WeatherDisplay:10.37,2013-01-24 11:00:00,
2013-01-24 05:10:00,28.5,15.6,28.99,ENE,57,5.0,12.0,58,0.00,FEW,,0.00,0.0,WeatherDisplay:10.37,2013-01-24 11:10:00,
2013-01-24 05:20:00,28.2,12.8,28.99,ENE,57,3.0,13.0,52,0.00,FEW,,0.00,0.0,WeatherDisplay:10.37,2013-01-24 11:20:00,
2013-01-24 05:30:00,27.8,12.9,28.99,NE,54,6.0,10.0,53,0.00,FEW,,0.00,0.0,WeatherDisplay:10.37,2013-01-24 11:30:00,
2013-01-24 05:40:00,27.4,12.5,28.99,NE,53,5.0,12.0,53,0.00,FEW,,0.00,0.0,WeatherDisplay:10.37,2013-01-24 11:40:00,
2013-01-24 05:50:00,27.1,11.8,28.99,ENE,68,7.0,12.0,52,0.00,FEW,,0.00,0.0,WeatherDisplay:10.37,2013-01-24 11:50:00,
2013-01-24 06:00:00,26.9,11.2,28.99,ENE,58,6.0,12.0,51,0.00,FEW,,0.00,0.0,WeatherDisplay:10.37,2013-01-24 12:00:00,
2013-01-24 06:10:00,26.8,11.1,28.99,ENE,58,3.0,12.0,51,0.00,FEW,,0.00,0.0,WeatherDisplay:10.37,2013-01-24 12:10:00,
2013-01-24 06:20:00,26.6,11.3,28.99,NE,54,2.0,12.0,52,0.00,FEW,,0.00,0.0,WeatherDisplay:10.37,2013-01-24 12:20:00,
2013-01-24 06:30:00,26.4,11.1,29.00,ENE,61,1.0,12.0,52,0.00,FEW,,0.00,0.0,WeatherDisplay:10.37,2013-01-24 12:30:00,
2013-01-24 06:40:00,26.2,11.0,29.00,ENE,69,1.0,12.0,52,0.00,FEW,,0.00,0.0,WeatherDisplay:10.37,2013-01-24 12:40:00,
2013-01-24 06:50:00,26.0,11.6,29.00,ENE,60,3.0,10.0,54,0.00,FEW,,0.00,0.0,WeatherDisplay:10.37,2013-01-24 12:50:00,
2013-01-24 07:00:00,25.6,12.1,29.01,NE,56,6.0,12.0,56,0.00,FEW,,0.00,0.0,WeatherDisplay:10.37,2013-01-24 13:00:00,
2013-01-24 07:10:00,25.2,12.9,29.00,ENE,57,2.0,10.0,59,0.00,FEW,,0.00,0.0,WeatherDisplay:10.37,2013-01-24 13:10:00,
2013-01-24 07:20:00,25.0,12.7,29.00,ENE,61,1.0,9.0,59,0.00,FEW,,0.00,0.0,WeatherDisplay:10.37,2013-01-24 13:20:00,
2013-01-24 07:30:00,24.8,12.1,29.00,ENE,63,2.0,12.0,58,0.00,FEW,,0.00,0.0,WeatherDisplay:10.37,2013-01-24 13:30:00,
2013-01-24 07:40:00,24.4,12.5,29.00,ENE,61,6.0,12.0,60,0.00,FEW,,0.00,0.0,WeatherDisplay:10.37,2013-01-24 13:40:00,
2013-01-24 07:50:00,24.3,13.1,29.01,ENE,59,2.0,10.0,62,0.00,FEW,,0.00,0.0,WeatherDisplay:10.37,2013-01-24 13:50:00,
2013-01-24 08:00:00,24.3,13.1,29.01,ENE,64,2.0,10.0,62,0.00,FEW,,0.00,0.0,WeatherDisplay:10.37,2013-01-24 14:00:00,
2013-01-24 08:10:00,24.5,13.7,29.01,ENE,59,1.0,9.0,63,0.00,FEW,,0.00,0.0,WeatherDisplay:10.37,2013-01-24 14:10:00,
2013-01-24 08:20:00,24.7,13.9,29.02,ENE,73,5.0,9.0,63,0.00,FEW,,0.00,0.0,WeatherDisplay:10.37,2013-01-24 14:20:00,
2013-01-24 08:30:00,24.8,14.0,29.03,ENE,64,3.0,12.0,63,0.00,FEW,,0.00,0.0,WeatherDisplay:10.37,2013-01-24 14:30:00,
2013-01-24 08:40:00,24.9,14.1,29.03,ENE,77,1.0,12.0,63,0.00,FEW,,0.00,0.0,WeatherDisplay:10.37,2013-01-24 14:40:00,
2013-01-24 08:50:00,25.2,14.0,29.03,ENE,65,1.0,8.0,62,0.00,FEW,,0.00,0.0,WeatherDisplay:10.37,2013-01-24 14:50:00,
2013-01-24 09:00:00,25.1,13.9,29.03,East,80,2.0,16.0,62,0.00,FEW,,0.00,0.0,WeatherDisplay:10.37,2013-01-24 15:00:00,
2013-01-24 09:10:00,25.4,14.5,29.04,East,93,5.0,12.0,63,0.00,FEW,,0.00,0.0,WeatherDisplay:10.37,2013-01-24 15:10:00,
2013-01-24 09:20:00,25.7,14.5,29.04,East,90,3.0,13.0,62,0.00,FEW,,0.00,0.0,WeatherDisplay:10.37,2013-01-24 15:20:00,
2013-01-24 09:30:00,25.9,14.3,29.04,East,89,2.0,10.0,61,0.00,FEW,,0.00,0.0,WeatherDisplay:10.37,2013-01-24 15:30:00,
2013-01-24 09:40:00,26.3,14.7,29.03,ESE,106,3.0,10.0,61,0.00,FEW,,0.00,0.0,WeatherDisplay:10.37,2013-01-24 15:40:00,
2013-01-24 09:50:00,26.8,14.8,29.03,ESE,122,2.0,10.0,60,0.00,FEW,,0.00,0.0,WeatherDisplay:10.37,2013-01-24 15:50:00,
2013-01-24 10:00:00,27.2,14.7,29.02,East,100,3.0,16.0,59,0.00,FEW,,0.00,0.0,WeatherDisplay:10.37,2013-01-24 16:00:00,
2013-01-24 10:10:00,27.3,14.5,29.03,ESE,121,3.0,13.0,58,0.00,FEW,,0.00,0.0,WeatherDisplay:10.37,2013-01-24 16:10:00,
2013-01-24 10:20:00,27.4,14.5,29.03,ESE,106,2.0,12.0,58,0.00,FEW,,0.00,0.0,WeatherDisplay:10.37,2013-01-24 16:20:00,
2013-01-24 10:30:00,27.7,14.9,29.03,SE,129,3.0,9.0,58,0.00,FEW,,0.00,0.0,WeatherDisplay:10.37,2013-01-24 16:30:00,
2013-01-24 10:40:00,28.0,13.9,29.03,SE,135,3.0,14.0,55,0.00,FEW,,0.00,0.0,WeatherDisplay:10.37,2013-01-24 16:40:00,
2013-01-24 10:50:00,28.4,13.9,29.03,ESE,117,5.0,12.0,54,0.00,FEW,,0.00,0.0,WeatherDisplay:10.37,2013-01-24 16:50:00,
2013-01-24 11:00:00,28.7,14.1,29.03,ESE,118,3.0,14.0,54,0.00,FEW,,0.00,0.0,WeatherDisplay:10.37,2013-01-24 17:00:00,
2013-01-24 11:10:00,28.6,14.9,29.02,ESE,121,3.0,12.0,56,0.00,FEW,,0.00,0.0,WeatherDisplay:10.37,2013-01-24 17:10:00,
2013-01-24 11:20:00,28.8,14.2,29.01,SE,126,3.0,14.0,54,0.00,FEW,,0.00,0.0,WeatherDisplay:10.37,2013-01-24 17:20:00,
2013-01-24 11:30:00,29.2,14.6,29.01,SE,135,6.0,13.0,54,0.00,FEW,,0.00,0.0,WeatherDisplay:10.37,2013-01-24 17:30:00,
2013-01-24 11:40:00,29.6,14.6,29.00,ESE,115,5.0,12.0,53,0.00,FEW,,0.00,0.0,WeatherDisplay:10.37,2013-01-24 17:40:00,
2013-01-24 11:50:00,29.7,14.6,29.00,East,98,5.0,12.0,53,0.00,FEW,,0.00,0.0,WeatherDisplay:10.37,2013-01-24 17:50:00,
2013-01-24 12:00:00,29.9,14.4,28.99,SE,124,6.0,13.0,52,0.00,FEW,,0.00,0.0,WeatherDisplay:10.37,2013-01-24 18:00:00,
2013-01-24 12:10:00,30.4,14.9,28.99,SE,132,3.0,13.0,52,0.00,FEW,,0.00,0.0,WeatherDisplay:10.37,2013-01-24 18:10:00,
2013-01-24 12:20:00,30.7,14.7,28.99,SE,131,6.0,13.0,51,0.00,FEW,,0.00,0.0,WeatherDisplay:10.37,2013-01-24 18:20:00,
2013-01-24 12:30:00,30.9,15.8,28.98,SE,125,6.0,13.0,53,0.00,FEW,,0.00,0.0,WeatherDisplay:10.37,2013-01-24 18:30:00,
2013-01-24 12:40:00,30.7,16.0,28.97,SE,135,6.0,13.0,54,0.00,FEW,,0.00,0.0,WeatherDisplay:10.37,2013-01-24 18:40:00,
2013-01-24 12:50:00,31.0,15.8,28.97,SE,132,2.0,13.0,53,0.00,FEW,,0.00,0.0,WeatherDisplay:10.37,2013-01-24 18:50:00,
2013-01-24 13:00:00,31.1,15.9,28.96,SE,129,5.0,12.0,53,0.00,FEW,,0.00,0.0,WeatherDisplay:10.37,2013-01-24 19:00:00,
2013-01-24 13:10:00,31.0,15.4,28.96,SE,126,6.0,12.0,52,0.00,FEW,,0.00,0.0,WeatherDisplay:10.37,2013-01-24 19:10:00,
2013-01-24 13:20:00,30.9,15.8,28.96,SE,133,7.0,15.0,53,0.00,FEW,,0.00,0.0,WeatherDisplay:10.37,2013-01-24 19:20:00,
2013-01-24 13:30:00,31.0,16.3,28.94,SE,136,5.0,13.0,54,0.00,FEW,,0.00,0.0,WeatherDisplay:10.37,2013-01-24 19:30:00,
2013-01-24 13:40:00,31.2,16.5,28.94,SSE,151,5.0,12.0,54,0.00,FEW,,0.00,0.0,WeatherDisplay:10.37,2013-01-24 19:40:00,
2013-01-24 13:50:00,31.2,15.6,28.94,SE,124,3.0,13.0,52,0.00,FEW,,0.00,0.0,WeatherDisplay:10.37,2013-01-24 19:50:00,
2013-01-24 14:00:00,31.1,15.9,28.92,ESE,120,5.0,14.0,53,0.00,FEW,,0.00,0.0,WeatherDisplay:10.37,2013-01-24 20:00:00,
2013-01-24 14:10:00,31.2,16.5,28.93,SE,128,3.0,12.0,54,0.00,FEW,,0.00,0.0,WeatherDisplay:10.37,2013-01-24 20:10:00,
2013-01-24 14:20:00,31.2,15.6,28.92,SE,141,6.0,15.0,52,0.00,FEW,,0.00,0.0,WeatherDisplay:10.37,2013-01-24 20:20:00,
2013-01-24 14:30:00,31.5,15.9,28.90,SE,142,6.0,17.0,52,0.00,FEW,,0.00,0.0,WeatherDisplay:10.37,2013-01-24 20:30:00,
2013-01-24 14:40:00,31.8,15.7,28.90,SE,144,8.0,15.0,51,0.00,FEW,,0.00,0.0,WeatherDisplay:10.37,2013-01-24 20:40:00,
2013-01-24 14:50:00,31.7,16.1,28.89,SE,143,6.0,15.0,52,0.00,FEW,,0.00,0.0,WeatherDisplay:10.37,2013-01-24 20:50:00,
2013-01-24 15:30:00,32.2,15.1,28.88,SE,141,7.0,15.0,49,0.00,FEW,,0.00,0.0,WeatherDisplay:10.37,2013-01-24 21:30:00,
2013-01-24 15:40:00,32.2,15.2,28.88,SE,140,8.0,16.0,49,0.00,FEW,,0.00,0.0,WeatherDisplay:10.37,2013-01-24 21:40:00,
2013-01-24 15:50:00,32.2,15.2,28.88,SE,144,8.0,17.0,49,0.00,FEW,,0.00,0.0,WeatherDisplay:10.37,2013-01-24 21:50:00,
2013-01-24 16:00:00,32.2,15.2,28.87,SE,139,6.0,16.0,49,0.00,FEW,,0.00,0.0,WeatherDisplay:10.37,2013-01-24 22:00:00,
2013-01-24 16:10:00,32.0,15.0,28.87,SSE,156,7.0,17.0,49,0.00,FEW,,0.00,0.0,WeatherDisplay:10.37,2013-01-24 22:10:00,
2013-01-24 16:20:00,31.9,15.3,28.87,SE,146,8.0,17.0,50,0.00,FEW,,0.00,0.0,WeatherDisplay:10.37,2013-01-24 22:20:00,
2013-01-24 16:30:00,31.7,15.6,28.88,SSE,151,7.0,16.0,51,0.00,FEW,,0.00,0.0,WeatherDisplay:10.37,2013-01-24 22:30:00,
2013-01-24 16:40:00,31.5,15.4,28.87,SSE,155,7.0,14.0,51,0.00,FEW,,0.00,0.0,WeatherDisplay:10.37,2013-01-24 22:40:00,
2013-01-24 16:50:00,31.5,15.9,28.87,SE,144,8.0,18.0,52,0.00,FEW,,0.00,0.0,WeatherDisplay:10.37,2013-01-24 22:50:00,
2013-01-24 17:00:00,31.4,15.8,28.88,SE,143,8.0,15.0,52,0.00,FEW,,0.00,0.0,WeatherDisplay:10.37,2013-01-24 23:00:00,
2013-01-24 17:10:00,31.4,15.8,28.87,SSE,159,10.0,15.0,52,0.00,FEW,,0.00,0.0,WeatherDisplay:10.37,2013-01-24 23:10:00,
2013-01-24 17:20:00,31.1,16.4,28.86,SSE,152,7.0,16.0,54,0.00,FEW,,0.00,0.0,WeatherDisplay:10.37,2013-01-24 23:20:00,
2013-01-24 17:30:00,30.5,17.1,28.86,SSE,157,9.0,20.0,57,0.00,FEW,,0.00,0.0,WeatherDisplay:10.37,2013-01-24 23:30:00,
2013-01-24 17:40:00,30.5,16.7,28.85,SSE,150,9.0,15.0,56,0.00,FEW,,0.00,0.0,WeatherDisplay:10.37,2013-01-24 23:40:00,
2013-01-24 17:50:00,30.6,16.7,28.85,SE,135,5.0,14.0,56,0.00,FEW,,0.00,0.0,WeatherDisplay:10.37,2013-01-24 23:50:00,
2013-01-24 18:00:00,30.6,15.9,28.86,SSE,149,8.0,17.0,54,0.00,FEW,,0.00,0.0,WeatherDisplay:10.37,2013-01-25 00:00:00,
2013-01-24 18:10:00,30.6,15.9,28.86,SE,124,8.0,14.0,54,0.00,FEW,,0.00,0.0,WeatherDisplay:10.37,2013-01-25 00:10:00,
2013-01-24 18:20:00,30.6,15.5,28.86,SSE,160,10.0,20.0,53,0.00,FEW,,0.00,0.0,WeatherDisplay:10.37,2013-01-25 00:20:00,
2013-01-24 18:30:00,30.5,15.4,28.85,SE,144,7.0,17.0,53,0.00,FEW,,0.00,0.0,WeatherDisplay:10.37,2013-01-25 00:30:00,
2013-01-24 18:40:00,30.6,15.5,28.86,SSE,152,6.0,12.0,53,0.00,FEW,,0.00,0.0,WeatherDisplay:10.37,2013-01-25 00:40:00,
2013-01-24 18:50:00,30.5,15.4,28.87,SE,136,5.0,14.0,53,0.00,FEW,,0.00,0.0,WeatherDisplay:10.37,2013-01-25 00:50:00,
2013-01-24 19:00:00,30.5,14.5,28.87,SSE,149,7.0,14.0,51,0.00,FEW,,0.00,0.0,WeatherDisplay:10.37,2013-01-25 01:00:00,
2013-01-24 19:10:00,30.3,12.9,28.85,SE,144,8.0,14.0,48,0.00,FEW,,0.00,0.0,WeatherDisplay:10.37,2013-01-25 01:10:00,
2013-01-24 19:20:00,30.0,12.7,28.84,SE,141,7.0,17.0,48,0.00,FEW,,0.00,0.0,WeatherDisplay:10.37,2013-01-25 01:20:00,
2013-01-24 19:30:00,29.7,13.3,28.82,SE,146,8.0,18.0,50,0.00,FEW,,0.00,0.0,WeatherDisplay:10.37,2013-01-25 01:30:00,